Robert Davies

Chefscout - Portsmouth
11 Mär 2027
Donnerstag
Verarbeitung

Persönlichkeit

Anpassungsfähigkeit (2) Ehrgeiz (9) Kontroverse (3) Loyalität (5) Druck (5) Professionalität (16) Fairness (19) Temperament (8)

Profil

Trainerstil Demokratisch
Lizenz Kontinentale A
Entschlossenheit 10
Menschenführung 12
Motivation 4
Disziplin 12
Arbeitszufriedenheit
49%
Ermüdung
0%
Rolle Chefscout
Gehalt 15.8K p/W
Vertrag 14.03.2030

Leistung

Verhalten Normal
Trainingseffektivität
19%
Spielerentwicklung
60%
Verletzungsprävention
25%
Taktische Umsetzung
35%

Letzte Ereignisse

Spieler begutachtet jetzt
Nahm an einer Scouting-Besprechung teil jetzt
Empfahl ein Transferziel jetzt
Empfahl ein Transferziel jetzt
Empfahl ein Transferziel 7T her
Spieler begutachtet 7T her
Spieler begutachtet 7T her
Spiel beobachtet 7T her

Aktuell beobachtet

170
Spieler Verein Status Fähigkeit Vertrauen Beobachtet Zuletzt beobachtet Letzte Stimme
Lwanda Mbanjwa Maritzburg United Aktiv 93 / 96 40% 8 09.03.2027 -
Nathan Lowe Stoke City Aktiv 107 / 123 40% 1 09.03.2027 -
Yuval Ranon Vitesse Aktiv 86 / 94 40% 1 09.03.2027 -
Thulani Erasmus Platinum Stars Aktiv 97 / 113 40% 9 08.03.2027 -
Dom Ballard Leyton Orient Aktiv 122 / 117 40% 9 05.03.2027 -
Rocco Vata Watford Aktiv 116 / 127 40% 6 05.03.2027 -
Oussama Bouguerri JS Saoura Aktiv 96 / 68 40% 1 05.03.2027 -
Marek Sestak FK Senica Aktiv 113 / 110 40% 7 02.03.2027 -
Hazeem Bakre Crawley Town Aktiv 80 / 79 40% 2 02.03.2027 -
Thomas Ofori BA All Stars Aktiv 73 / 76 40% 1 02.03.2027 -
Maren Kefas Plateau United Aktiv 78 / 83 40% 3 01.03.2027 -
Ahmed Khaled Paralimni Aktiv 85 / 107 40% 2 01.03.2027 -
Baba N'Diaye Chelyabinsk Aktiv 86 / 83 40% 1 01.03.2027 -
Fletcher Holman Swindon Town Aktiv 86 / 79 40% 4 28.02.2027 -
Federico Serra Arezzo Aktiv 86 / 84 40% 2 27.02.2027 -
Chineme Chinonso Ikorodu City Aktiv 86 / 114 40% 4 26.02.2027 -
Matheus Alves CSKA Moscow Aktiv 135 / 121 40% 3 26.02.2027 -
Anestis Mythou PAOK Aktiv 96 / 120 40% 1 26.02.2027 -
Keagan Mokoena Free State Stars Aktiv 96 / 106 40% 2 25.02.2027 -
Aidan Dausch AC Ajaccio Aktiv 84 / 81 40% 1 25.02.2027 -
Harrison Ofori Liberty Professionals Aktiv 90 / 101 40% 7 20.02.2027 -
Khama Zwane Free State Stars Aktiv 85 / 75 40% 2 19.02.2027 -
Agustín Fernández NK Zavrc Aktiv 88 / 74 40% 3 19.02.2027 -
Rayan Bournemouth Aktiv 138 / 133 40% 4 16.02.2027 -
Amaury Morales Pumas UNAM Aktiv 120 / 114 40% 1 16.02.2027 -
Adama Goïta Remo Stars Aktiv 101 / 87 40% 3 14.02.2027 -
Gustavo Ferreira Benfica Aktiv 85 / 96 40% 2 14.02.2027 -
Víctor Guzmán Sporting CP Aktiv 98 / 110 40% 1 14.02.2027 -
Abubakar Garba Grasshopper Aktiv 84 / 91 40% 1 12.02.2027 -
Alagie Wally Veres Aktiv 94 / 95 40% 2 10.02.2027 -
Leo Castledine Middlesbrough Aktiv 128 / 144 40% 1 07.02.2027 -
Ruben Ramos LA Galaxy Aktiv 96 / 100 40% 5 03.02.2027 -
Ante Brekalo Zadar Aktiv 107 / 124 40% 1 03.02.2027 -
Rayan Kolli Queens Park Rangers Aktiv 111 / 106 40% 1 03.02.2027 -
Jocelin Ta Bi Sunderland Aktiv 104 / 126 40% 1 02.02.2027 -
Ognjen Bondžulić Mladost Lucani Aktiv 108 / 126 40% 1 02.02.2027 -
Florentino Luís Ipswich Town Aktiv 141 / 135 40% 2 25.01.2027 -
Christian Krasnodar Verloren 137 / 148 40% 1 25.01.2027 -
Dennis Cirkin Queens Park Rangers Aktiv 132 / 116 40% 1 25.01.2027 -
Iwan Morgan Grimsby Town Aktiv 106 / 117 40% 2 20.01.2027 -
Andreas Trimmel Red Bull Salzburg Aktiv 131 / 131 60% 1 01.01.2027 Befürworten
Mao Hosoya Sagan Tosu Aktiv 134 / 135 67% 1 01.01.2027 Befürworten
Jefry Zapata Danubio Verhandlung 118 / 118 67% 1 01.01.2027 -
Nicolò Tresoldi Club Brugge Verloren 129 / 133 67% 1 01.01.2027 -
Aurélien Scheidler Charleroi Bericht bereit 119 / 119 67% 1 01.01.2027 Befürworten
Habib Diarra Sunderland Verloren 135 / 131 40% 1 31.12.2026 -
Harvey White Stevenage Aktiv 107 / 113 40% 1 31.12.2026 -
Siyanda Ndlovu Bloemfontein Celtic Aktiv 109 / 116 40% 2 30.12.2026 -
Tommy Conway Middlesbrough Aktiv 128 / 135 40% 1 30.12.2026 -
Jean Galindo Imotski Aktiv 93 / 80 40% 1 30.12.2026 -
Ali Ahmed Norwich City Aktiv 120 / 136 40% 2 28.12.2026 -
Mathys Tel Tottenham Aktiv 144 / 159 40% 3 26.12.2026 -
Williams Manyama SuperSport United Verloren 113 / 100 40% 1 25.12.2026 -
Rico Lewis Manchester City Aktiv 154 / 152 40% 1 25.12.2026 -
Keagan Mothiba SuperSport United Aktiv 113 / 98 40% 2 24.12.2026 -
Tyler Goodrham Oxford United Aktiv 111 / 125 40% 1 24.12.2026 -
Sayfallah Ltaief Cracovia Aktiv 118 / 128 40% 1 24.12.2026 -
Oswin Appollis Orlando Pirates Aktiv 113 / 123 40% 3 23.12.2026 -
Louie Barry Sheffield Wednesday Aktiv 129 / 128 40% 1 23.12.2026 -
Harry Clarke Preston Aktiv 130 / 138 40% 1 23.12.2026 -
Ilyas Ansah Hull City Aktiv 131 / 121 40% 4 21.12.2026 -
Reda Khadra Qarabag Aktiv 140 / 135 40% 2 21.12.2026 -
Liel Abada Charlotte Football Club Aktiv 123 / 125 40% 1 21.12.2026 -
Tom Fellows Southampton Aktiv 125 / 132 40% 1 19.12.2026 -
Isaiah Jones Luton Town Aktiv 123 / 121 40% 1 19.12.2026 -
Dávid Strelec Middlesbrough Aktiv 141 / 124 40% 1 19.12.2026 -
Hassan Beja AFC Leopards Aktiv 69 / 70 40% 4 17.12.2026 -
Julio Enciso Ipswich Town Aktiv 135 / 131 40% 2 17.12.2026 -
Mathias Jørgensen Blackburn Rovers Aktiv 113 / 105 40% 1 17.12.2026 -
Cian Ashford Cardiff City Aktiv 116 / 125 40% 1 17.12.2026 -
Telasco Segovia Inter Miami CF Aktiv 123 / 119 40% 1 16.12.2026 -
Everton Bala Levski Aktiv 125 / 117 40% 1 15.12.2026 -
Kwame Poku Queens Park Rangers Aktiv 133 / 136 40% 1 15.12.2026 -
Carlos Vicente Birmingham Aktiv 139 / 145 40% 1 15.12.2026 -
Micah Burton Austin FC Aktiv 95 / 77 40% 5 14.12.2026 -
Matvii Ponomarenko Dynamo Kyiv Aktiv 125 / 110 40% 1 14.12.2026 -
Senny Mayulu Paris Saint-Germain Aktiv 141 / 151 40% 1 12.12.2026 -
Andy Rojas New York Red Bulls Aktiv 84 / 110 40% 2 11.12.2026 -
Jonás Luna Santa Clara Aktiv 109 / 115 40% 2 10.12.2026 -
Alex Harris Colorado Rapids Aktiv 87 / 98 40% 1 10.12.2026 -
Kabu Agyemang Raymond Bechem United Aktiv 73 / 93 40% 1 09.12.2026 -
Lorenzo De Leo Renate Aktiv 94 / 106 40% 1 08.12.2026 -
Ezekiel Kwame Alladoh Philadelphia Union Aktiv 119 / 139 40% 2 07.12.2026 -
Vivaldo Semedo Watford Aktiv 115 / 128 40% 3 05.12.2026 -
Leon Grgić Sturm Graz Aktiv 123 / 115 40% 1 04.12.2026 -
Nikolay Zlatev Cherno More Aktiv 87 / 114 40% 2 03.12.2026 -
Shea Charles Southampton Aktiv 130 / 129 40% 2 03.12.2026 -
Hamzat Ojediran Colorado Rapids Aktiv 129 / 119 40% 1 03.12.2026 -
Luke McNally Bristol City Aktiv 125 / 141 40% 1 03.12.2026 -
Toby Collyer West Bromwich Albion Aktiv 120 / 129 40% 1 01.12.2026 -
Alexandr Chernikov Krasnodar Aktiv 142 / 114 40% 1 01.12.2026 -
Luka Jovanović San Jose Earthquakes Aktiv 110 / 92 40% 2 29.11.2026 -
Jacob Ambæk Brondby Aktiv 121 / 137 40% 1 29.11.2026 -
Endrick Real Madrid Aktiv 149 / 162 40% 3 28.11.2026 -
Joel Orlando Almagro Aktiv 107 / 102 40% 4 27.11.2026 -
Dramane Kamagaté USM Alger Aktiv 92 / 95 40% 1 27.11.2026 -
Darlvin Yeboah Bechem United Aktiv 67 / 96 40% 1 25.11.2026 -
Othmane Maamma Watford Aktiv 116 / 135 40% 2 23.11.2026 -
Thiago Salischiker Rucci HNK Vukovar 1991 Aktiv 100 / 111 40% 1 23.11.2026 -
Elias Achouri San Diego Football Club Aktiv 126 / 137 40% 1 23.11.2026 -
Tshepang Moremi Orlando Pirates Aktiv 103 / 98 40% 2 21.11.2026 -
Ousseynou Seck Randers Aktiv 115 / 124 40% 1 21.11.2026 -
Thalente Mbatha Orlando Pirates Aktiv 110 / 124 40% 1 21.11.2026 -
Kasey McAteer Ipswich Town Aktiv 129 / 130 40% 1 18.11.2026 -
Ethan Williams Peterborough United Aktiv 105 / 121 40% 1 18.11.2026 -
Marcelo Allende Mamelodi Sundowns Aktiv 145 / 123 40% 2 16.11.2026 -
Oliver Skipp Leicester City Aktiv 121 / 120 40% 1 16.11.2026 -
Youssoufa Moukoko FC Copenhagen Aktiv 119 / 136 40% 5 14.11.2026 -
Sal Olivas Philadelphia Union Aktiv 86 / 83 40% 1 13.11.2026 -
Jeong Sang-Bin St. Louis CITY SC Aktiv 125 / 103 40% 1 13.11.2026 -
Bruno Caicedo Vancouver Whitecaps Aktiv 110 / 120 40% 3 11.11.2026 -
Amin Boudri Los Angeles Football Club Aktiv 115 / 141 40% 1 10.11.2026 -
Koki Saito Queens Park Rangers Aktiv 121 / 121 40% 1 09.11.2026 -
Bongani Modiba Black Aces Aktiv 108 / 141 40% 1 09.11.2026 -
Mandla Erasmus SuperSport United Aktiv 110 / 137 40% 2 08.11.2026 -
Ryan Sessegnon Fulham Aktiv 151 / 131 40% 1 08.11.2026 -
Mohamed Farsi Columbus Crew Aktiv 120 / 106 40% 1 08.11.2026 -
Keagan Mokoena Free State Stars Verloren 101 / 88 40% 4 06.11.2026 -
Darren Yapi Colorado Rapids Aktiv 117 / 125 40% 4 05.11.2026 -
Tosin Olawale El-Kanemi Warriors Aktiv 88 / 104 40% 2 04.11.2026 -
Will Lankshear Middlesbrough Aktiv 117 / 140 40% 5 03.11.2026 -
Matías Fernández-Pardo Newcastle United Aktiv 143 / 146 40% 1 03.11.2026 -
Lucas Halter Houston Dynamo Aktiv 124 / 107 40% 1 02.11.2026 -
Bradley Tau SuperSport United Verloren 124 / 138 40% 1 02.11.2026 -
Dagur Dan Þórhallsson CF Montreal Aktiv 121 / 99 40% 1 02.11.2026 -
Archie Goodwin Charlotte Football Club Aktiv 94 / 129 40% 5 30.10.2026 -
Luke Baartman ES Mostaganem Aktiv 109 / 99 40% 2 30.10.2026 -
Elías Báez Atlanta United FC Aktiv 119 / 125 40% 1 29.10.2026 -
James Sands New York City Aktiv 114 / 124 40% 1 29.10.2026 -
Antony Portland Timbers Aktiv 138 / 147 40% 1 29.10.2026 -
Joseph Abah Remo Stars Aktiv 91 / 90 40% 1 29.10.2026 -
Arkaitz Mariezkurrena Real Sociedad Aktiv 118 / 132 40% 1 26.10.2026 -
Alasana Yirajang AS Trencin Aktiv 105 / 138 40% 1 26.10.2026 -
Inti López River Plate Aktiv 89 / 93 40% 1 23.10.2026 -
Williams Yikat Aigle Royal de Moungo Aktiv 95 / 101 40% 3 21.10.2026 -
David Kalokoh Ajax Aktiv 116 / 132 40% 1 20.10.2026 -
Mohammed Sofo New York Red Bulls Aktiv 103 / 115 40% 1 19.10.2026 -
Kimani Stewart-Baynes Colorado Rapids Aktiv 106 / 111 40% 2 15.10.2026 -
Diego Porcel Argentinos Juniors Aktiv 126 / 145 40% 1 15.10.2026 -
Kyrell Wilson Swansea City Aktiv 107 / 103 40% 2 14.10.2026 -
Mohammed Yahaya Great Olympics Aktiv 94 / 68 40% 1 13.10.2026 -
Junior Aliyu Kano Pillars Aktiv 95 / 81 40% 1 13.10.2026 -
Martín Ojeda Orlando City Aktiv 124 / 115 40% 1 13.10.2026 -
Carlos Forbs Club Brugge Aktiv 132 / 131 40% 1 13.10.2026 -
Yannick Bright Inter Miami CF Aktiv 125 / 124 40% 1 13.10.2026 -
Marco Pašalić Orlando City Aktiv 114 / 109 40% 1 12.10.2026 -
Conrad Wallem Austria Wien Aktiv 126 / 133 40% 1 12.10.2026 -
Gabriel Pirani San Diego Football Club Aktiv 132 / 149 40% 1 11.10.2026 -
Paxten Aaronson Colorado Rapids Aktiv 135 / 136 40% 1 11.10.2026 -
Lio Cortulua Aktiv 95 / 104 40% 1 07.10.2026 -
José Paradela Cruz Azul Aktiv 153 / 136 40% 1 06.10.2026 -
Patrick Preciado Deportivo Pasto Aktiv 104 / 98 40% 2 04.10.2026 -
Kristian Fletcher FC Cincinnati Aktiv 93 / 95 40% 3 30.09.2026 -
Donavan Phillip Colorado Rapids Aktiv 81 / 88 40% 2 28.09.2026 -
Zakka John El-Kanemi Warriors Aktiv 75 / 90 40% 2 21.09.2026 -
Stefanos Tzimas Brighton Aktiv 140 / 135 40% 1 21.09.2026 -
Chinedu Onyinjekwu Bayelsa United Aktiv 101 / 85 40% 2 20.09.2026 -
Ricky Louis FC Dallas Aktiv 90 / 97 40% 1 17.09.2026 -
Marcus Caldeira Minnesota United FC Aktiv 82 / 84 40% 2 16.09.2026 -
Don-Pedro Samuel Bayelsa United Aktiv 78 / 74 40% 1 16.09.2026 -
Owen Graham-Roache CF Montreal Aktiv 80 / 101 40% 1 15.09.2026 -
Gerardo Valenzuela FC Cincinnati Aktiv 94 / 104 40% 1 10.09.2026 -
Joseph Arumala Ikorodu City Aktiv 76 / 97 40% 1 08.09.2026 -
Oladimeji Dada Ikorodu City Aktiv 83 / 74 40% 1 08.09.2026 -
Jerónimo Russo Newell's Old Boys Aktiv 93 / 112 40% 1 07.09.2026 -
Blessed Iyamu Kun Khalifat Aktiv 80 / 80 40% 1 31.08.2026 -
Mauricio González Minnesota United FC Aktiv 104 / 134 40% 1 31.08.2026 -
Caleb Yirenkyi Coventry City Aktiv 130 / 125 40% 1 01.08.2026 -
Godwin Oham Warri Wolves Aktiv 73 / 87 40% 1 01.08.2026 -
Jonny Shore New York City Aktiv 89 / 117 40% 1 01.08.2026 -